Hauptseite
METAR-TAF:

METAR-TAF

Flughäfen :

Pittsburgh, Pennsylvania, Vereinigte Staaten

Pittsburgh International Airport

Breite: 40-30-14N, Länge: 080-15-59W, Höhe: 366 m

Beobachtung

Neuester Wetterbericht von vor 27 Minuten, um 13:51 UTC
Windstille
Temperatur 13°C
Luftfeuchtigkeit 82%
Luftdruck 1027 hPa
Sichtweite: 16.1 km
Aufgelockert bewölkt in der Höhe von 25000 ft

METAR: KPIT 201351Z 00000KT 10SM SCT250 13/10 A3032 RMK AO2 SLP274 T01330100

Zeit: 10:18 (14:18 UTC)

Prognose

Neuester Wetterbericht von vor 2 Stunden und 58 Minuten, um 11:20 UTC
Gültige Prognose vom 20 um 12 UTC bis 21 um 18 UTC
Wind 5 kt aus West/Südwest
Sichtweite: 10 km
Aufgelockert bewölkt in der Höhe von 25000 ft

TAF: KPIT 201120Z 2012/2118 24005KT P6SM SCT250

Wetterbeobachtungen und Prognosen von mehr als 4000 Flughäfen (METAR und TAF Bericht).

Die verfügbaren Stationen werden durch gelbe und rote Markierungen auf der Karte dargestellt.

Führen Sie die Maus auf sie, um den Namen der Station zu sehen.

Darauf klicken, um die Beobachtung von Wetterbeobachtungen und Prognosen zu sehen.

Um die Karte zu ändern : klicken Sie auf den grünen Tasten mit einem schwarzen Kreuz Zum Vergrößern, auf den grünen Button mit einem Gedankenstrich zu verkleinern, oder auf die grünen Pfeile für benachbarte Karten.


METAR-TAF: